Time;durP1;ratioP1;P1;durP2;ratioP2;P2;SDS_P1;SDS_P2;PMS_P1;PMS_P2;Temp;Humidity;BMP_temperature;BMP_pressure;BME280_temperature;BME280_humidity;BME280_pressure;Samples;Min_cycle;Max_cycle;Signal;HPM_P1;HPM_P2
2022/06/14 00:01:14;;;;;;;;;;;;;;;;;;2089799;28;19956;-45
2022/06/14 00:02:14;;;;;;;;;;;;;;;;;;2089801;28;19931;-45
2022/06/14 00:03:15;;;;;;;;;;;;;;;;;;2089895;28;19928;-45
2022/06/14 00:04:16;;;;;;;;;;;;;;;;;;2089941;28;19964;-45
2022/06/14 00:05:17;;;;;;;;;;;;;;;;;;2089777;28;19921;-46
2022/06/14 00:06:18;;;;;;;;;;;;;;;;;;2089791;28;19920;-45
2022/06/14 00:07:19;;;;;;;;;;;;;;;;;;2090142;28;20456;-45
2022/06/14 00:08:20;;;;;;;;;;;;;;;;;;2091102;28;19959;-45
2022/06/14 00:09:20;;;;;;;;;;;;;;;;;;2089853;28;19944;-45
2022/06/14 00:10:21;;;;;;;;;;;;;;;;;;2089737;28;19920;-45
2022/06/14 00:11:22;;;;;;;;;;;;;;;;;;2089741;28;20397;-45
2022/06/14 00:12:23;;;;;;;;;;;;;;;;;;2089847;28;19960;-45
2022/06/14 00:13:24;;;;;;;;;;;;;;;;;;2089803;28;19920;-45
2022/06/14 00:14:25;;;;;;;;;;;;;;;;;;2089872;28;19920;-45
2022/06/14 00:15:26;;;;;;;;;;;;;;;;;;2089917;28;19921;-45
2022/06/14 00:16:27;;;;;;;;;;;;;;;;;;2089821;28;19964;-47
2022/06/14 00:17:28;;;;;;;;;;;;;;;;;;2089743;28;20008;-45
2022/06/14 00:18:29;;;;;;;;;;;;;;;;;;2089891;28;19928;-45
2022/06/14 00:19:30;;;;;;;;;;;;;;;;;;2089792;28;20028;-46
2022/06/14 00:20:31;;;;;;;;;;;;;;;;;;2089904;28;19948;-45
2022/06/14 00:21:32;;;;;;;;;;;;;;;;;;2089733;28;20317;-45
2022/06/14 00:22:33;;;;;;;;;;;;;;;;;;2089736;28;20369;-45
2022/06/14 00:23:34;;;;;;;;;;;;;;;;;;2089754;28;19950;-45
2022/06/14 00:24:34;;;;;;;;;;;;;;;;;;2089767;28;20004;-45
2022/06/14 00:25:36;;;;;;;;;;;;;;;;;;2089845;28;19920;-45
2022/06/14 00:26:37;;;;;;;;;;;;;;;;;;2089460;28;20416;-47
2022/06/14 00:27:38;;;;;;;;;;;;;;;;;;2090152;28;19932;-45
2022/06/14 00:28:39;;;;;;;;;;;;;;;;;;2089641;28;20284;-45
2022/06/14 00:29:40;;;;;;;;;;;;;;;;;;2089778;28;20002;-46
2022/06/14 00:30:41;;;;;;;;;;;;;;;;;;2089721;28;20332;-45
2022/06/14 00:31:42;;;;;;;;;;;;;;;;;;2089796;28;19920;-45
2022/06/14 00:32:43;;;;;;;;;;;;;;;;;;2089585;28;20427;-45
2022/06/14 00:33:44;;;;;;;;;;;;;;;;;;2089692;28;20019;-45
2022/06/14 00:34:44;;;;;;;;;;;;;;;;;;2089956;28;19963;-45
2022/06/14 00:35:45;;;;;;;;;;;;;;;;;;2089596;28;19927;-45
2022/06/14 00:36:46;;;;;;;;;;;;;;;;;;2089904;28;20377;-46
2022/06/14 00:37:47;;;;;;;;;;;;;;;;;;2089568;28;19971;-45
2022/06/14 00:38:48;;;;;;;;;;;;;;;;;;2089559;28;19926;-46
2022/06/14 00:39:49;;;;;;;;;;;;;;;;;;2089625;28;19948;-46
2022/06/14 00:40:50;;;;;;;;;;;;;;;;;;2089795;28;19920;-46
2022/06/14 00:41:51;;;;;;;;;;;;;;;;;;2089634;28;19921;-45
2022/06/14 00:42:52;;;;;;;;;;;;;;;;;;2089536;28;19978;-46
2022/06/14 00:43:52;;;;;;;;;;;;;;;;;;2089648;28;19952;-46
2022/06/14 00:44:53;;;;;;;;;;;;;;;;;;2089739;28;19921;-46
2022/06/14 00:45:54;;;;;;;;;;;;;;;;;;2089741;28;20012;-45
2022/06/14 00:47:07;;;;;;;;;;;;;;;;;;2089946;28;19920;-43
2022/06/14 00:48:08;;;;;;;;;;;;;;;;;;2089717;28;20427;-45
2022/06/14 00:49:09;;;;;;;;;;;;;;;;;;2089801;28;20008;-45
2022/06/14 00:50:10;;;;;;;;;;;;;;;;;;2089730;28;20004;-44
2022/06/14 00:51:11;;;;;;;;;;;;;;;;;;2089463;28;20315;-44
2022/06/14 00:52:12;;;;;;;;;;;;;;;;;;2089694;28;20003;-44
2022/06/14 00:53:13;;;;;;;;;;;;;;;;;;2089578;28;19920;-44
2022/06/14 00:54:14;;;;;;;;;;;;;;;;;;2089616;28;19928;-44
2022/06/14 00:55:15;;;;;;;;;;;;;;;;;;2089548;28;20026;-44
2022/06/14 00:56:16;;;;;;;;;;;;;;;;;;2089635;28;19921;-44
2022/06/14 00:57:18;;;;;;;;;;;;;;;;;;2089372;28;19943;-44
2022/06/14 00:58:18;;;;;;;;;;;;;;;;;;2089511;28;20289;-42
2022/06/14 00:59:19;;;;;;;;;;;;;;;;;;2089689;28;19955;-45
2022/06/14 01:00:20;;;;;;;;;;;;;;;;;;2089482;28;19920;-44
2022/06/14 01:01:21;;;;;;;;;;;;;;;;;;2089623;28;20284;-44
2022/06/14 01:02:22;;;;;;;;;;;;;;;;;;2089519;28;19921;-44
2022/06/14 01:03:23;;;;;;;;;;;;;;;;;;2089446;28;19931;-44
2022/06/14 01:04:24;;;;;;;;;;;;;;;;;;2096671;28;19927;-46
2022/06/14 01:05:25;;;;;;;;;;;;;;;;;;2097798;28;20381;-46
2022/06/14 01:06:27;;;;;;;;;;;;;;;;;;2097649;28;19924;-46
2022/06/14 01:07:28;;;;;;;;;;;;;;;;;;2097761;28;20007;-45
2022/06/14 01:08:29;;;;;;;;;;;;;;;;;;2098070;28;19993;-45
2022/06/14 01:09:30;;;;;;;;;;;;;;;;;;2097697;28;19920;-44
2022/06/14 01:10:31;;;;;;;;;;;;;;;;;;2097866;28;19927;-44
2022/06/14 01:11:32;;;;;;;;;;;;;;;;;;2092258;28;20012;-43
2022/06/14 01:12:33;;;;;;;;;;;;;;;;;;2089547;28;20297;-44
2022/06/14 01:13:33;;;;;;;;;;;;;;;;;;2089381;28;19975;-45
2022/06/14 01:14:34;;;;;;;;;;;;;;;;;;2089544;28;19948;-45
2022/06/14 01:15:35;;;;;;;;;;;;;;;;;;2089635;28;19928;-46
2022/06/14 01:16:36;;;;;;;;;;;;;;;;;;2089339;28;20011;-46
2022/06/14 01:17:40;;;;;;;;;;;;;;;;;;2089508;28;19920;-46
2022/06/14 01:18:41;;;;;;;;;;;;;;;;;;2089411;28;20266;-45
2022/06/14 01:19:41;;;;;;;;;;;;;;;;;;2089395;28;19921;-45
2022/06/14 01:20:42;;;;;;;;;;;;;;;;;;2089416;28;19924;-45
2022/06/14 01:21:43;;;;;;;;;;;;;;;;;;2089325;28;20448;-46
2022/06/14 01:22:44;;;;;;;;;;;;;;;;;;2089377;28;19952;-45
2022/06/14 01:23:45;;;;;;;;;;;;;;;;;;2089563;28;20008;-46
2022/06/14 01:24:46;;;;;;;;;;;;;;;;;;2089420;28;19943;-45
2022/06/14 01:25:47;;;;;;;;;;;;;;;;;;2089487;28;19971;-45
2022/06/14 01:26:48;;;;;;;;;;;;;;;;;;2089459;28;20297;-44
2022/06/14 01:27:49;;;;;;;;;;;;;;;;;;2089350;28;20512;-45
2022/06/14 01:28:50;;;;;;;;;;;;;;;;;;2089339;28;20262;-44
2022/06/14 01:29:51;;;;;;;;;;;;;;;;;;2089441;28;19971;-44
2022/06/14 01:30:52;;;;;;;;;;;;;;;;;;2089433;28;19929;-44
2022/06/14 01:31:53;;;;;;;;;;;;;;;;;;2089290;28;20023;-44
2022/06/14 01:32:54;;;;;;;;;;;;;;;;;;2089506;28;19920;-44
2022/06/14 01:33:55;;;;;;;;;;;;;;;;;;2089255;28;20263;-43
2022/06/14 01:34:56;;;;;;;;;;;;;;;;;;2089436;28;19920;-44
2022/06/14 01:35:57;;;;;;;;;;;;;;;;;;2089276;28;20376;-45
2022/06/14 01:36:58;;;;;;;;;;;;;;;;;;2089241;28;19921;-46
2022/06/14 01:37:58;;;;;;;;;;;;;;;;;;2089378;28;19920;-44
2022/06/14 01:38:59;;;;;;;;;;;;;;;;;;2089470;28;19927;-44
2022/06/14 01:40:01;;;;;;;;;;;;;;;;;;2089276;28;19927;-46
2022/06/14 01:41:02;;;;;;;;;;;;;;;;;;2089357;28;20007;-43
2022/06/14 01:42:03;;;;;;;;;;;;;;;;;;2089458;28;19920;-44
2022/06/14 01:43:04;;;;;;;;;;;;;;;;;;2089236;28;19952;-44
2022/06/14 01:44:05;;;;;;;;;;;;;;;;;;2089446;28;20015;-44
2022/06/14 01:45:06;;;;;;;;;;;;;;;;;;2089748;28;20007;-44
2022/06/14 01:46:07;;;;;;;;;;;;;;;;;;2089213;28;20358;-45
2022/06/14 01:47:08;;;;;;;;;;;;;;;;;;2089318;28;19970;-45
2022/06/14 01:48:09;;;;;;;;;;;;;;;;;;2089416;28;20290;-45
2022/06/14 01:51:52;;;;;;;;;;;;;;;;;;2089320;28;20003;-46
2022/06/14 01:52:52;;;;;;;;;;;;;;;;;;2089304;28;19924;-46
2022/06/14 01:53:53;;;;;;;;;;;;;;;;;;2089523;28;19920;-47
2022/06/14 01:54:55;;;;;;;;;;;;;;;;;;2089432;28;20042;-45
2022/06/14 01:55:56;;;;;;;;;;;;;;;;;;2090591;28;19921;-46
2022/06/14 01:56:56;;;;;;;;;;;;;;;;;;2090696;28;19943;-45
2022/06/14 01:57:58;;;;;;;;;;;;;;;;;;2090786;28;19925;-47
2022/06/14 01:58:58;;;;;;;;;;;;;;;;;;2090581;28;20433;-46
2022/06/14 01:59:59;;;;;;;;;;;;;;;;;;2092280;28;19926;-46
2022/06/14 02:01:00;;;;;;;;;;;;;;;;;;2090569;28;19932;-45
2022/06/14 02:02:01;;;;;;;;;;;;;;;;;;2090597;28;20364;-45
2022/06/14 02:04:40;;;;;;;;;;;;;;;;;;2090700;28;19975;-45
2022/06/14 02:05:40;;;;;;;;;;;;;;;;;;2090592;28;20271;-44
2022/06/14 02:06:41;;;;;;;;;;;;;;;;;;2090490;28;19943;-44
2022/06/14 02:07:42;;;;;;;;;;;;;;;;;;2090927;28;19933;-44
2022/06/14 02:08:43;;;;;;;;;;;;;;;;;;2090761;28;20403;-44
2022/06/14 02:09:44;;;;;;;;;;;;;;;;;;2090592;28;20274;-44
2022/06/14 02:10:45;;;;;;;;;;;;;;;;;;2090553;28;19952;-44
2022/06/14 02:11:46;;;;;;;;;;;;;;;;;;2098034;28;20151;-45
2022/06/14 02:12:47;;;;;;;;;;;;;;;;;;2099203;28;19973;-45
2022/06/14 02:13:48;;;;;;;;;;;;;;;;;;2098833;28;19970;-45
2022/06/14 02:14:49;;;;;;;;;;;;;;;;;;2098970;28;19920;-45
2022/06/14 02:15:49;;;;;;;;;;;;;;;;;;2098952;28;20012;-45
2022/06/14 02:16:50;;;;;;;;;;;;;;;;;;2098776;28;20364;-46
2022/06/14 02:17:51;;;;;;;;;;;;;;;;;;2099025;28;20011;-45
2022/06/14 02:18:52;;;;;;;;;;;;;;;;;;2098878;28;20209;-46
2022/06/14 02:19:53;;;;;;;;;;;;;;;;;;2098966;28;20020;-46
2022/06/14 02:20:54;;;;;;;;;;;;;;;;;;2098846;28;19920;-45
2022/06/14 02:21:55;;;;;;;;;;;;;;;;;;2098905;28;19932;-47
2022/06/14 02:22:56;;;;;;;;;;;;;;;;;;2099101;28;20361;-44
2022/06/14 02:23:57;;;;;;;;;;;;;;;;;;2098890;28;19931;-44
2022/06/14 02:24:58;;;;;;;;;;;;;;;;;;2098777;28;19943;-44
2022/06/14 02:25:58;;;;;;;;;;;;;;;;;;2098705;28;20023;-44
2022/06/14 02:26:59;;;;;;;;;;;;;;;;;;2098935;28;19920;-43
2022/06/14 02:28:00;;;;;;;;;;;;;;;;;;2098752;28;19966;-45
2022/06/14 02:29:01;;;;;;;;;;;;;;;;;;2098673;28;19920;-43
2022/06/14 02:30:02;;;;;;;;;;;;;;;;;;2098776;28;19921;-45
2022/06/14 02:31:03;;;;;;;;;;;;;;;;;;2098896;28;19970;-44
2022/06/14 02:32:04;;;;;;;;;;;;;;;;;;2098697;28;20015;-44
2022/06/14 02:33:06;;;;;;;;;;;;;;;;;;2098791;28;19920;-44
2022/06/14 02:34:06;;;;;;;;;;;;;;;;;;2098941;28;20440;-44
2022/06/14 02:35:07;;;;;;;;;;;;;;;;;;2098741;28;19920;-44
2022/06/14 02:36:08;;;;;;;;;;;;;;;;;;2098599;28;19920;-44
2022/06/14 02:37:10;;;;;;;;;;;;;;;;;;2098672;28;19973;-44
2022/06/14 02:38:10;;;;;;;;;;;;;;;;;;2098639;28;20012;-44
2022/06/14 02:39:11;;;;;;;;;;;;;;;;;;2098874;28;19928;-46
2022/06/14 02:40:12;;;;;;;;;;;;;;;;;;2098821;28;20014;-46
2022/06/14 02:41:13;;;;;;;;;;;;;;;;;;2098538;28;19920;-45
2022/06/14 02:42:14;;;;;;;;;;;;;;;;;;2098667;28;19924;-45
2022/06/14 02:43:15;;;;;;;;;;;;;;;;;;2098624;28;19931;-46
2022/06/14 02:44:15;;;;;;;;;;;;;;;;;;2098586;28;20065;-45
2022/06/14 02:45:17;;;;;;;;;;;;;;;;;;2098766;28;19963;-46
2022/06/14 02:46:18;;;;;;;;;;;;;;;;;;2098603;28;19951;-45
2022/06/14 02:47:19;;;;;;;;;;;;;;;;;;2098720;28;19927;-47
2022/06/14 02:48:19;;;;;;;;;;;;;;;;;;2099028;28;19927;-45
2022/06/14 02:49:21;;;;;;;;;;;;;;;;;;2098788;28;20293;-45
2022/06/14 02:50:21;;;;;;;;;;;;;;;;;;2098606;28;20273;-46
2022/06/14 02:51:22;;;;;;;;;;;;;;;;;;2098559;28;19920;-46
2022/06/14 02:52:23;;;;;;;;;;;;;;;;;;2098582;28;19920;-48
2022/06/14 02:53:24;;;;;;;;;;;;;;;;;;2098589;28;19921;-45
2022/06/14 02:54:25;;;;;;;;;;;;;;;;;;2098510;28;20377;-44
2022/06/14 02:55:26;;;;;;;;;;;;;;;;;;2098583;28;19920;-44
2022/06/14 02:56:27;;;;;;;;;;;;;;;;;;2098124;28;20003;-45
2022/06/14 02:57:28;;;;;;;;;;;;;;;;;;2098804;28;20019;-44
2022/06/14 02:58:29;;;;;;;;;;;;;;;;;;2098615;28;20011;-44
2022/06/14 02:59:30;;;;;;;;;;;;;;;;;;2098623;28;19927;-45
2022/06/14 03:00:30;;;;;;;;;;;;;;;;;;2098691;28;20055;-44
2022/06/14 03:01:31;;;;;;;;;;;;;;;;;;2098631;28;20002;-45
2022/06/14 03:02:33;;;;;;;;;;;;;;;;;;2098580;28;20110;-44
2022/06/14 03:03:34;;;;;;;;;;;;;;;;;;2098558;28;20022;-46
2022/06/14 03:04:34;;;;;;;;;;;;;;;;;;2098547;28;19928;-45
2022/06/14 03:05:36;;;;;;;;;;;;;;;;;;2098658;28;19927;-43
2022/06/14 03:06:36;;;;;;;;;;;;;;;;;;2097566;28;20019;-43
2022/06/14 03:07:37;;;;;;;;;;;;;;;;;;2098443;28;19921;-44
2022/06/14 03:08:38;;;;;;;;;;;;;;;;;;2098410;28;19966;-45
2022/06/14 03:09:40;;;;;;;;;;;;;;;;;;2098597;28;19982;-44
2022/06/14 03:10:40;;;;;;;;;;;;;;;;;;2098683;28;19947;-43
2022/06/14 03:11:41;;;;;;;;;;;;;;;;;;2091438;28;19931;-43
2022/06/14 03:12:42;;;;;;;;;;;;;;;;;;2090125;28;19920;-44
2022/06/14 03:13:43;;;;;;;;;;;;;;;;;;2090129;28;19932;-42
2022/06/14 03:14:44;;;;;;;;;;;;;;;;;;2090124;28;20020;-43
2022/06/14 03:15:45;;;;;;;;;;;;;;;;;;2090076;28;19928;-44
2022/06/14 03:16:46;;;;;;;;;;;;;;;;;;2090172;28;20000;-43
2022/06/14 03:17:47;;;;;;;;;;;;;;;;;;2090259;28;19921;-42
2022/06/14 03:18:49;;;;;;;;;;;;;;;;;;2090493;28;20354;-46
2022/06/14 03:19:50;;;;;;;;;;;;;;;;;;2090121;28;20007;-45
2022/06/14 03:20:51;;;;;;;;;;;;;;;;;;2090251;28;20008;-45
2022/06/14 03:21:52;;;;;;;;;;;;;;;;;;2090324;28;19925;-45
2022/06/14 03:22:53;;;;;;;;;;;;;;;;;;2090267;28;19960;-44
2022/06/14 03:23:54;;;;;;;;;;;;;;;;;;2090072;28;19927;-43
2022/06/14 03:24:55;;;;;;;;;;;;;;;;;;2090146;28;20004;-42
2022/06/14 03:25:56;;;;;;;;;;;;;;;;;;2089948;28;19927;-44
2022/06/14 03:26:57;;;;;;;;;;;;;;;;;;2090106;28;19927;-43
2022/06/14 03:28:01;;;;;;;;;;;;;;;;;;2090090;28;20063;-43
2022/06/14 03:29:01;;;;;;;;;;;;;;;;;;2090247;28;20008;-44
2022/06/14 03:30:03;;;;;;;;;;;;;;;;;;2090195;28;20125;-45
2022/06/14 03:31:03;;;;;;;;;;;;;;;;;;2090175;28;19978;-43
2022/06/14 03:32:04;;;;;;;;;;;;;;;;;;2090154;28;19927;-43
2022/06/14 03:33:06;;;;;;;;;;;;;;;;;;2089912;28;19956;-44
2022/06/14 03:34:07;;;;;;;;;;;;;;;;;;2090026;28;20366;-43
2022/06/14 03:35:07;;;;;;;;;;;;;;;;;;2090089;28;20031;-44
2022/06/14 03:36:10;;;;;;;;;;;;;;;;;;2089986;28;19920;-44
2022/06/14 03:37:11;;;;;;;;;;;;;;;;;;2090112;28;20004;-44
2022/06/14 03:38:12;;;;;;;;;;;;;;;;;;2090405;28;19921;-45
2022/06/14 03:39:13;;;;;;;;;;;;;;;;;;2089916;28;19924;-45
2022/06/14 03:40:14;;;;;;;;;;;;;;;;;;2089989;28;19987;-45
2022/06/14 03:41:15;;;;;;;;;;;;;;;;;;2089877;28;19924;-45
2022/06/14 03:42:16;;;;;;;;;;;;;;;;;;2089943;28;20013;-45
2022/06/14 03:43:17;;;;;;;;;;;;;;;;;;2089962;28;19984;-45
2022/06/14 03:44:17;;;;;;;;;;;;;;;;;;2090415;28;19921;-44
2022/06/14 03:45:19;;;;;;;;;;;;;;;;;;2090094;28;19920;-43
2022/06/14 03:46:20;;;;;;;;;;;;;;;;;;2089818;28;19920;-44
2022/06/14 03:47:20;;;;;;;;;;;;;;;;;;2090398;28;19927;-43
2022/06/14 03:48:21;;;;;;;;;;;;;;;;;;2090564;28;19921;-45
2022/06/14 03:49:22;;;;;;;;;;;;;;;;;;2090428;28;19920;-46
2022/06/14 03:50:23;;;;;;;;;;;;;;;;;;2089984;28;19924;-46
2022/06/14 03:51:24;;;;;;;;;;;;;;;;;;2089809;28;20060;-45
2022/06/14 03:52:25;;;;;;;;;;;;;;;;;;2091322;28;20461;-45
2022/06/14 03:53:28;;;;;;;;;;;;;;;;;;2098453;28;19920;-43
2022/06/14 03:54:29;;;;;;;;;;;;;;;;;;2098459;28;20139;-45
2022/06/14 03:55:30;;;;;;;;;;;;;;;;;;2098182;28;19963;-45
2022/06/14 03:56:31;;;;;;;;;;;;;;;;;;2098138;28;20357;-45
2022/06/14 03:57:33;;;;;;;;;;;;;;;;;;2098247;28;20315;-45
2022/06/14 03:58:34;;;;;;;;;;;;;;;;;;2098516;28;20011;-45
2022/06/14 03:59:35;;;;;;;;;;;;;;;;;;2098384;28;20465;-45
2022/06/14 04:00:37;;;;;;;;;;;;;;;;;;2098325;28;19928;-46
2022/06/14 04:01:37;;;;;;;;;;;;;;;;;;2098259;28;20054;-43
2022/06/14 04:02:53;;;;;;;;;;;;;;;;;;2098141;28;19973;-43
2022/06/14 04:03:54;;;;;;;;;;;;;;;;;;2098056;28;20391;-43
2022/06/14 04:04:56;;;;;;;;;;;;;;;;;;2098123;28;19958;-43
2022/06/14 04:05:56;;;;;;;;;;;;;;;;;;2098408;28;19963;-43
2022/06/14 04:06:57;;;;;;;;;;;;;;;;;;2098021;28;20371;-43
2022/06/14 04:07:58;;;;;;;;;;;;;;;;;;2098833;28;19920;-45
2022/06/14 04:08:59;;;;;;;;;;;;;;;;;;2098112;28;20034;-44
2022/06/14 04:10:01;;;;;;;;;;;;;;;;;;2099130;28;19947;-45
2022/06/14 04:11:02;;;;;;;;;;;;;;;;;;2097162;28;20007;-45
2022/06/14 04:12:03;;;;;;;;;;;;;;;;;;2090337;28;20015;-47
2022/06/14 04:13:05;;;;;;;;;;;;;;;;;;2089942;28;19921;-43
2022/06/14 04:14:05;;;;;;;;;;;;;;;;;;2090212;28;20293;-45
2022/06/14 04:15:06;;;;;;;;;;;;;;;;;;2089984;28;19999;-46
2022/06/14 04:16:07;;;;;;;;;;;;;;;;;;2090028;28;19964;-44
2022/06/14 04:17:08;;;;;;;;;;;;;;;;;;2089747;28;19921;-44
2022/06/14 04:19:25;;;;;;;;;;;;;;;;;;2089790;28;20015;-44
2022/06/14 04:20:26;;;;;;;;;;;;;;;;;;2089757;28;20286;-44
2022/06/14 04:21:26;;;;;;;;;;;;;;;;;;2090218;28;19966;-47
2022/06/14 04:22:27;;;;;;;;;;;;;;;;;;2090226;28;19921;-45
2022/06/14 04:23:28;;;;;;;;;;;;;;;;;;2090527;28;20429;-45
2022/06/14 04:24:29;;;;;;;;;;;;;;;;;;2090027;28;19929;-45
2022/06/14 04:25:30;;;;;;;;;;;;;;;;;;2089718;28;20303;-45
2022/06/14 04:26:32;;;;;;;;;;;;;;;;;;2090089;28;19965;-43
2022/06/14 04:27:33;;;;;;;;;;;;;;;;;;2089664;28;19975;-42
2022/06/14 04:28:34;;;;;;;;;;;;;;;;;;2090277;28;19955;-42
2022/06/14 04:29:35;;;;;;;;;;;;;;;;;;2090507;28;19921;-45
2022/06/14 04:30:36;;;;;;;;;;;;;;;;;;2090614;28;19943;-45
2022/06/14 04:31:37;;;;;;;;;;;;;;;;;;2089843;28;20047;-45
2022/06/14 04:32:38;;;;;;;;;;;;;;;;;;2089965;28;20332;-44
2022/06/14 04:33:39;;;;;;;;;;;;;;;;;;2089869;28;19921;-44
2022/06/14 04:34:40;;;;;;;;;;;;;;;;;;2089818;28;20011;-43
2022/06/14 04:35:41;;;;;;;;;;;;;;;;;;2089657;28;19921;-44
2022/06/14 04:36:42;;;;;;;;;;;;;;;;;;2089690;28;19971;-43
2022/06/14 04:37:42;;;;;;;;;;;;;;;;;;2090783;28;19928;-42
2022/06/14 04:38:43;;;;;;;;;;;;;;;;;;2089598;28;20289;-43
2022/06/14 04:39:44;;;;;;;;;;;;;;;;;;2090093;28;20382;-43
2022/06/14 04:40:45;;;;;;;;;;;;;;;;;;2090143;28;19970;-45
2022/06/14 04:41:46;;;;;;;;;;;;;;;;;;2090398;28;20441;-43
2022/06/14 04:42:47;;;;;;;;;;;;;;;;;;2089490;28;20023;-43
2022/06/14 04:43:47;;;;;;;;;;;;;;;;;;2089979;28;20481;-45
2022/06/14 04:44:49;;;;;;;;;;;;;;;;;;2089543;28;19979;-45
2022/06/14 04:45:54;;;;;;;;;;;;;;;;;;2089642;28;20019;-47
2022/06/14 04:46:55;;;;;;;;;;;;;;;;;;2089912;28;20023;-45
2022/06/14 04:47:56;;;;;;;;;;;;;;;;;;2089942;28;19921;-43
2022/06/14 04:48:57;;;;;;;;;;;;;;;;;;2093738;28;19920;-45
2022/06/14 04:49:58;;;;;;;;;;;;;;;;;;2097836;28;20010;-44
2022/06/14 04:50:59;;;;;;;;;;;;;;;;;;2098209;28;20384;-44
2022/06/14 04:52:00;;;;;;;;;;;;;;;;;;2097863;28;20008;-45
2022/06/14 04:53:01;;;;;;;;;;;;;;;;;;2097981;28;19920;-45
2022/06/14 04:54:01;;;;;;;;;;;;;;;;;;2097837;28;19920;-46
2022/06/14 04:55:02;;;;;;;;;;;;;;;;;;2097987;28;19974;-44
2022/06/14 04:56:03;;;;;;;;;;;;;;;;;;2098269;28;19963;-42
2022/06/14 04:57:04;;;;;;;;;;;;;;;;;;2098356;28;20316;-45
2022/06/14 04:58:05;;;;;;;;;;;;;;;;;;2098554;28;20011;-42
2022/06/14 04:59:06;;;;;;;;;;;;;;;;;;2097901;28;19920;-43
2022/06/14 05:00:12;;;;;;;;;;;;;;;;;;2098036;28;19925;-43
2022/06/14 05:01:13;;;;;;;;;;;;;;;;;;2098242;28;19924;-45
2022/06/14 05:02:14;;;;;;;;;;;;;;;;;;2098127;28;20355;-43
2022/06/14 05:03:15;;;;;;;;;;;;;;;;;;2097991;28;19924;-43
2022/06/14 05:04:16;;;;;;;;;;;;;;;;;;2098175;28;19920;-46
2022/06/14 05:05:20;;;;;;;;;;;;;;;;;;2097817;28;20007;-45
2022/06/14 05:06:21;;;;;;;;;;;;;;;;;;2098556;28;19967;-43
2022/06/14 05:07:22;;;;;;;;;;;;;;;;;;2097882;28;19927;-46
2022/06/14 05:08:23;;;;;;;;;;;;;;;;;;2098718;28;19952;-46
2022/06/14 05:09:24;;;;;;;;;;;;;;;;;;2098209;28;19920;-44
2022/06/14 05:10:25;;;;;;;;;;;;;;;;;;2097980;28;19927;-43
2022/06/14 05:11:26;;;;;;;;;;;;;;;;;;2093539;28;20320;-45
2022/06/14 05:12:26;;;;;;;;;;;;;;;;;;2089824;28;19956;-48
2022/06/14 05:13:28;;;;;;;;;;;;;;;;;;2089403;28;19920;-46
2022/06/14 05:14:28;;;;;;;;;;;;;;;;;;2089716;28;19924;-45
2022/06/14 05:15:29;;;;;;;;;;;;;;;;;;2089990;28;19921;-45
2022/06/14 05:16:30;;;;;;;;;;;;;;;;;;2089559;28;20232;-44
2022/06/14 05:17:32;;;;;;;;;;;;;;;;;;2089455;28;20305;-44
2022/06/14 05:18:32;;;;;;;;;;;;;;;;;;2089199;28;20031;-44
2022/06/14 05:19:33;;;;;;;;;;;;;;;;;;2089294;28;19928;-46
2022/06/14 05:20:34;;;;;;;;;;;;;;;;;;2088913;28;20007;-48
2022/06/14 05:21:35;;;;;;;;;;;;;;;;;;2090428;28;19920;-44
2022/06/14 05:22:36;;;;;;;;;;;;;;;;;;2097990;28;19920;-45
2022/06/14 05:23:37;;;;;;;;;;;;;;;;;;2098289;28;19927;-44
2022/06/14 05:24:37;;;;;;;;;;;;;;;;;;2098274;28;20003;-46
2022/06/14 05:25:39;;;;;;;;;;;;;;;;;;2097818;28;20011;-45
2022/06/14 05:26:42;;;;;;;;;;;;;;;;;;2097863;28;20003;-44
2022/06/14 05:27:43;;;;;;;;;;;;;;;;;;2098490;28;20350;-46
2022/06/14 05:28:44;;;;;;;;;;;;;;;;;;2098002;28;19921;-44
2022/06/14 05:29:45;;;;;;;;;;;;;;;;;;2097597;28;19951;-44
2022/06/14 05:30:46;;;;;;;;;;;;;;;;;;2099275;28;20011;-48
2022/06/14 05:31:47;;;;;;;;;;;;;;;;;;2099193;28;20011;-47
2022/06/14 05:32:48;;;;;;;;;;;;;;;;;;2099092;28;20320;-47
2022/06/14 05:33:49;;;;;;;;;;;;;;;;;;2099464;28;19920;-44
2022/06/14 05:34:49;;;;;;;;;;;;;;;;;;2099225;28;20255;-47
2022/06/14 05:35:50;;;;;;;;;;;;;;;;;;2099430;28;19924;-45
2022/06/14 05:36:51;;;;;;;;;;;;;;;;;;2099585;28;19921;-45
2022/06/14 05:37:52;;;;;;;;;;;;;;;;;;2099309;28;20383;-47
2022/06/14 05:38:53;;;;;;;;;;;;;;;;;;2099308;28;19920;-45
2022/06/14 05:39:54;;;;;;;;;;;;;;;;;;2099473;28;20357;-46
2022/06/14 05:40:55;;;;;;;;;;;;;;;;;;2098974;28;19921;-46
2022/06/14 05:41:57;;;;;;;;;;;;;;;;;;2099494;28;19927;-46
2022/06/14 05:42:58;;;;;;;;;;;;;;;;;;2099212;28;20011;-46
2022/06/14 05:43:59;;;;;;;;;;;;;;;;;;2099358;28;20007;-47
2022/06/14 05:45:00;;;;;;;;;;;;;;;;;;2098735;28;19966;-46
2022/06/14 05:46:01;;;;;;;;;;;;;;;;;;2098943;28;19924;-46
2022/06/14 05:47:02;;;;;;;;;;;;;;;;;;2099619;28;19920;-46
2022/06/14 05:48:02;;;;;;;;;;;;;;;;;;2099459;28;19920;-44
2022/06/14 05:49:04;;;;;;;;;;;;;;;;;;2099030;28;19924;-45
2022/06/14 05:50:05;;;;;;;;;;;;;;;;;;2099782;28;20500;-43
2022/06/14 05:51:06;;;;;;;;;;;;;;;;;;2099127;28;19920;-45
2022/06/14 05:52:07;;;;;;;;;;;;;;;;;;2099542;28;19952;-46
2022/06/14 05:53:08;;;;;;;;;;;;;;;;;;2099026;28;19921;-44
2022/06/14 05:54:09;;;;;;;;;;;;;;;;;;2099216;28;19924;-43
2022/06/14 05:55:10;;;;;;;;;;;;;;;;;;2099847;28;19987;-44
2022/06/14 05:56:11;;;;;;;;;;;;;;;;;;2099073;28;19952;-45
2022/06/14 05:57:12;;;;;;;;;;;;;;;;;;2099010;28;19929;-45
2022/06/14 05:58:13;;;;;;;;;;;;;;;;;;2099125;28;20498;-44
2022/06/14 05:59:14;;;;;;;;;;;;;;;;;;2099106;28;19971;-45
2022/06/14 06:00:19;;;;;;;;;;;;;;;;;;2099429;28;19920;-43
2022/06/14 06:01:20;;;;;;;;;;;;;;;;;;2099082;28;20373;-43
2022/06/14 06:02:21;;;;;;;;;;;;;;;;;;2099289;28;19921;-42
2022/06/14 06:03:22;;;;;;;;;;;;;;;;;;2099080;28;20423;-42
2022/06/14 06:04:23;;;;;;;;;;;;;;;;;;2099141;28;20157;-42
2022/06/14 06:05:24;;;;;;;;;;;;;;;;;;2099971;28;19990;-46
2022/06/14 06:06:25;;;;;;;;;;;;;;;;;;2099295;28;20342;-43
2022/06/14 06:07:25;;;;;;;;;;;;;;;;;;2099339;28;19928;-43
2022/06/14 06:08:26;;;;;;;;;;;;;;;;;;2098743;28;19924;-43
2022/06/14 06:09:27;;;;;;;;;;;;;;;;;;2099600;28;19920;-47
2022/06/14 06:10:29;;;;;;;;;;;;;;;;;;2099464;28;20408;-45
2022/06/14 06:11:29;;;;;;;;;;;;;;;;;;2093884;28;19920;-44
2022/06/14 06:12:31;;;;;;;;;;;;;;;;;;2090835;28;20365;-43
2022/06/14 06:13:31;;;;;;;;;;;;;;;;;;2090544;28;19921;-43
2022/06/14 06:14:34;;;;;;;;;;;;;;;;;;2090840;28;19928;-44
2022/06/14 06:15:34;;;;;;;;;;;;;;;;;;2091347;28;20002;-46
2022/06/14 06:16:36;;;;;;;;;;;;;;;;;;2090864;28;19924;-44
2022/06/14 06:17:37;;;;;;;;;;;;;;;;;;2090811;28;19921;-43
2022/06/14 06:18:38;;;;;;;;;;;;;;;;;;2091479;28;19976;-44
2022/06/14 06:19:44;;;;;;;;;;;;;;;;;;2091202;28;19925;-43
2022/06/14 06:20:45;;;;;;;;;;;;;;;;;;2090521;28;20066;-47
2022/06/14 06:21:46;;;;;;;;;;;;;;;;;;2090914;28;20007;-43
2022/06/14 06:22:46;;;;;;;;;;;;;;;;;;2090878;28;20109;-43
2022/06/14 06:23:47;;;;;;;;;;;;;;;;;;2090463;28;19966;-43
2022/06/14 06:24:48;;;;;;;;;;;;;;;;;;2091049;28;19920;-43
2022/06/14 06:25:51;;;;;;;;;;;;;;;;;;2090920;28;19920;-48
2022/06/14 06:26:52;;;;;;;;;;;;;;;;;;2090999;28;19987;-48
2022/06/14 06:27:53;;;;;;;;;;;;;;;;;;2091075;28;20006;-44
2022/06/14 06:28:54;;;;;;;;;;;;;;;;;;2090626;28;20373;-45
2022/06/14 06:29:55;;;;;;;;;;;;;;;;;;2090545;28;19995;-45
2022/06/14 06:30:56;;;;;;;;;;;;;;;;;;2091303;28;20015;-47
2022/06/14 06:31:57;;;;;;;;;;;;;;;;;;2090801;28;20351;-43
2022/06/14 06:32:57;;;;;;;;;;;;;;;;;;2090334;28;19973;-46
2022/06/14 06:33:59;;;;;;;;;;;;;;;;;;2091330;28;19982;-43
2022/06/14 06:34:59;;;;;;;;;;;;;;;;;;2091156;28;19967;-46
2022/06/14 06:36:00;;;;;;;;;;;;;;;;;;2090816;28;19927;-45
2022/06/14 06:37:01;;;;;;;;;;;;;;;;;;2091046;28;20297;-43
2022/06/14 06:38:02;;;;;;;;;;;;;;;;;;2090611;28;19920;-49
2022/06/14 06:39:03;;;;;;;;;;;;;;;;;;2090655;28;19925;-48
2022/06/14 06:40:04;;;;;;;;;;;;;;;;;;2090351;28;19924;-48
2022/06/14 06:42:24;;;;;;;;;;;;;;;;;;2090246;28;20066;-43
2022/06/14 06:43:29;;;;;;;;;;;;;;;;;;2091142;28;20003;-44
2022/06/14 06:44:30;;;;;;;;;;;;;;;;;;2090394;28;20397;-44
2022/06/14 06:45:31;;;;;;;;;;;;;;;;;;2090297;28;20378;-43
2022/06/14 06:46:32;;;;;;;;;;;;;;;;;;2090350;28;20021;-45
2022/06/14 06:47:34;;;;;;;;;;;;;;;;;;2090825;28;19933;-48
2022/06/14 06:48:35;;;;;;;;;;;;;;;;;;2090343;28;19920;-48
2022/06/14 06:49:36;;;;;;;;;;;;;;;;;;2090545;28;19921;-46
2022/06/14 06:50:37;;;;;;;;;;;;;;;;;;2090508;28;19970;-46
2022/06/14 06:51:38;;;;;;;;;;;;;;;;;;2090779;28;20333;-46
2022/06/14 06:52:39;;;;;;;;;;;;;;;;;;2090665;28;19975;-46
2022/06/14 06:53:40;;;;;;;;;;;;;;;;;;2090486;28;20019;-46
2022/06/14 06:54:41;;;;;;;;;;;;;;;;;;2090327;28;20019;-45
2022/06/14 06:55:47;;;;;;;;;;;;;;;;;;2090485;28;19927;-45
2022/06/14 06:56:48;;;;;;;;;;;;;;;;;;2090386;28;20011;-46
2022/06/14 06:57:50;;;;;;;;;;;;;;;;;;2090770;28;19983;-49
2022/06/14 06:58:51;;;;;;;;;;;;;;;;;;2091286;28;19959;-45
2022/06/14 06:59:52;;;;;;;;;;;;;;;;;;2090378;28;19921;-47
2022/06/14 07:00:53;;;;;;;;;;;;;;;;;;2090318;28;20011;-46
2022/06/14 07:01:53;;;;;;;;;;;;;;;;;;2090304;28;19932;-46
2022/06/14 07:02:54;;;;;;;;;;;;;;;;;;2091113;28;19967;-47
2022/06/14 07:03:55;;;;;;;;;;;;;;;;;;2091132;28;19921;-47
2022/06/14 07:05:06;;;;;;;;;;;;;;;;;;2091255;28;19921;-50